Time;durP1;ratioP1;P1;durP2;ratioP2;P2;SDS_P1;SDS_P2;PMS_P1;PMS_P2;Temp;Humidity;BMP_temperature;BMP_pressure;BME280_temperature;BME280_humidity;BME280_pressure;Samples;Min_cycle;Max_cycle;Signal;HPM_P1;HPM_P2
2023/03/23 00:01:58;;;;;;;2.33;1.00;;;;;;;19.74;38.99;100154.84;16109728;19;132732;-40
2023/03/23 00:07:21;;;;;;;2.10;0.90;;;;;;;19.69;39.33;100164.81;16111670;19;131291;-40
2023/03/23 00:12:44;;;;;;;2.42;1.05;;;;;;;19.66;39.06;100187.56;16105347;19;130996;-39
2023/03/23 00:18:06;;;;;;;1.77;0.75;;;;;;;19.63;38.94;100168.69;16099921;19;130527;-40
2023/03/23 00:23:28;;;;;;;2.83;0.82;;;;;;;19.61;39.44;100159.78;16103291;19;131048;-39
2023/03/23 00:28:51;;;;;;;2.67;0.90;;;;;;;19.58;39.40;100154.78;16098689;19;131067;-40
2023/03/23 00:34:19;;;;;;;1.52;0.68;;;;;;;19.55;39.34;100147.03;16097974;19;130531;-40
2023/03/23 00:39:44;;;;;;;2.00;0.80;;;;;;;19.53;39.12;100144.50;16098728;19;131350;-40
2023/03/23 00:45:10;;;;;;;1.08;0.82;;;;;;;19.50;39.16;100122.88;16098637;19;130819;-40
2023/03/23 00:50:32;;;;;;;2.40;0.80;;;;;;;19.50;39.44;100127.56;16095191;19;131389;-39
2023/03/23 00:55:59;;;;;;;3.50;0.73;;;;;;;19.48;39.40;100165.84;16099934;19;130758;-40
2023/03/23 01:01:21;;;;;;;3.47;0.90;;;;;;;19.46;38.96;100152.25;16117274;19;131061;-39
2023/03/23 01:06:44;;;;;;;1.10;0.63;;;;;;;19.44;39.27;100153.63;16119147;19;129840;-41
2023/03/23 01:12:07;;;;;;;2.20;0.90;;;;;;;19.42;39.01;100151.09;16118988;19;129797;-40
2023/03/23 01:17:29;;;;;;;1.52;0.90;;;;;;;19.40;39.20;100142.22;16114021;19;130532;-39
2023/03/23 01:22:52;;;;;;;1.40;0.70;;;;;;;19.40;39.41;100156.09;16118599;19;130379;-40
2023/03/23 01:28:14;;;;;;;1.48;0.80;;;;;;;19.37;38.99;100160.25;16114404;19;130395;-41
2023/03/23 01:33:37;;;;;;;1.77;0.77;;;;;;;19.35;39.24;100165.22;16113748;19;129847;-41
2023/03/23 01:39:03;;;;;;;2.00;0.60;;;;;;;19.34;39.21;100151.63;16113898;19;129374;-40
2023/03/23 01:44:31;;;;;;;1.35;0.80;;;;;;;19.33;39.38;100136.91;16115411;19;129899;-41
2023/03/23 01:49:53;;;;;;;2.95;0.90;;;;;;;19.30;39.26;100115.28;16112463;19;129970;-40
2023/03/23 01:55:16;;;;;;;2.25;0.98;;;;;;;19.28;39.49;100106.41;16111908;19;130373;-42
2023/03/23 02:00:42;;;;;;;1.55;0.93;;;;;;;19.26;39.00;100100.28;16114269;19;130741;-39
2023/03/23 02:06:08;;;;;;;1.70;0.75;;;;;;;19.25;39.10;100100.56;16113772;19;129930;-39
2023/03/23 02:11:30;;;;;;;1.20;0.73;;;;;;;19.23;39.02;100114.69;16110867;19;130655;-39
2023/03/23 02:17:12;;;;;;;2.38;0.70;;;;;;;19.23;39.39;100131.31;16115382;19;129303;-42
2023/03/23 02:23:05;;;;;;;2.17;0.70;;;;;;;19.22;39.00;100130.50;16110109;19;129502;-41
2023/03/23 02:29:07;;;;;;;2.28;0.90;;;;;;;19.19;39.44;100114.38;16111673;19;131200;-40
2023/03/23 02:34:35;;;;;;;3.00;0.90;;;;;;;19.17;39.58;100116.56;16113174;19;130312;-41
2023/03/23 02:40:11;;;;;;;2.88;0.68;;;;;;;19.16;39.12;100125.19;16113489;19;131041;-39
2023/03/23 02:45:35;;;;;;;1.63;0.80;;;;;;;19.16;39.42;100114.09;16112555;19;131086;-40
2023/03/23 02:51:00;;;;;;;1.13;0.80;;;;;;;19.14;39.48;100122.66;16113287;19;129716;-40
2023/03/23 02:56:25;;;;;;;2.25;0.82;;;;;;;19.12;39.39;100122.13;16112543;19;130436;-39
2023/03/23 03:02:02;;;;;;;1.50;0.70;;;;;;;19.14;39.41;100113.50;16107559;19;129548;-40
2023/03/23 03:07:35;;;;;;;2.38;0.93;;;;;;;19.10;39.29;100109.59;16109851;19;129619;-40
2023/03/23 03:13:15;;;;;;;1.42;0.77;;;;;;;19.08;39.10;100121.78;16107020;19;129551;-40
2023/03/23 03:18:46;;;;;;;1.42;0.70;;;;;;;19.08;39.37;100115.44;16108547;19;129478;-40
2023/03/23 03:24:11;;;;;;;1.27;0.65;;;;;;;19.04;39.53;100120.69;16112492;19;130913;-39
2023/03/23 03:29:37;;;;;;;1.60;0.97;;;;;;;19.06;39.25;100115.72;16109498;19;130989;-40
2023/03/23 03:35:03;;;;;;;2.20;0.93;;;;;;;19.04;39.11;100122.59;16108425;19;130906;-39
2023/03/23 03:40:25;;;;;;;1.52;0.80;;;;;;;19.03;39.09;100115.38;16108095;19;130203;-40
2023/03/23 03:45:47;;;;;;;1.42;0.70;;;;;;;19.01;39.33;100118.44;16103607;19;130679;-40
2023/03/23 03:51:09;;;;;;;1.33;0.82;;;;;;;19.01;39.30;100120.38;16105523;19;131008;-39
2023/03/23 03:56:35;;;;;;;2.60;1.00;;;;;;;19.00;39.50;100127.03;16103148;19;129608;-39
2023/03/23 04:01:57;;;;;;;1.85;0.85;;;;;;;18.98;39.51;100123.69;16121681;19;131216;-40
2023/03/23 04:07:21;;;;;;;1.20;0.65;;;;;;;18.96;39.43;100129.47;16123223;19;133299;-39
2023/03/23 04:12:42;;;;;;;2.38;0.80;;;;;;;18.96;39.45;100126.72;16120542;19;130543;-41
2023/03/23 04:18:05;;;;;;;1.20;0.70;;;;;;;18.95;39.40;100121.44;16119229;19;130386;-40
2023/03/23 04:23:30;;;;;;;2.15;0.80;;;;;;;18.93;39.05;100132.81;16118424;19;131018;-42
2023/03/23 04:28:51;;;;;;;2.42;0.70;;;;;;;;;;16121153;19;130855;-40
2023/03/23 04:34:14;;;;;;;2.20;0.77;;;;;;;18.92;39.50;100137.50;16117747;19;131058;-40
2023/03/23 04:39:39;;;;;;;3.83;1.00;;;;;;;18.90;39.49;100134.16;16118351;19;129256;-39
2023/03/23 04:45:03;;;;;;;3.22;0.70;;;;;;;18.89;39.35;100142.75;16119905;19;129635;-39
2023/03/23 04:50:30;;;;;;;2.10;0.80;;;;;;;18.88;39.50;100135.53;16116442;19;130498;-39
2023/03/23 04:55:52;;;;;;;1.45;0.70;;;;;;;18.86;39.17;100146.06;16117476;19;130135;-39
2023/03/23 05:01:14;;;;;;;2.35;0.85;;;;;;;18.85;39.03;100152.69;16119759;19;133987;-40
2023/03/23 05:06:36;;;;;;;2.47;0.90;;;;;;;18.84;39.49;100145.47;16119575;19;131153;-41
2023/03/23 05:11:59;;;;;;;1.95;0.93;;;;;;;18.84;39.11;100153.78;16117833;19;129480;-41
2023/03/23 05:17:23;;;;;;;2.15;0.80;;;;;;;18.83;39.18;100157.69;16116982;19;130660;-39
2023/03/23 05:22:49;;;;;;;4.00;0.90;;;;;;;18.82;39.13;100156.03;16111799;19;130000;-39
2023/03/23 05:28:11;;;;;;;2.88;0.70;;;;;;;18.80;38.96;100138.81;16114295;19;129743;-39
2023/03/23 05:33:33;;;;;;;2.90;1.20;;;;;;;18.81;39.11;100146.03;16115780;19;129874;-39
2023/03/23 05:38:56;;;;;;;2.08;0.90;;;;;;;18.79;39.04;100165.69;16116858;19;129558;-39
2023/03/23 05:44:18;;;;;;;3.53;0.98;;;;;;;18.78;39.31;100166.78;16117775;19;130649;-40
2023/03/23 05:49:41;;;;;;;2.40;0.95;;;;;;;18.77;38.91;100167.88;16110550;19;129907;-39
2023/03/23 05:55:03;;;;;;;3.63;0.93;;;;;;;18.76;39.12;100164.28;16114315;19;130914;-40
2023/03/23 06:00:28;;;;;;;3.13;0.90;;;;;;;18.75;39.30;100176.47;16115495;19;129756;-41
2023/03/23 06:05:50;;;;;;;2.77;1.00;;;;;;;18.76;38.99;100178.13;16110300;19;130098;-39
2023/03/23 06:11:13;;;;;;;5.85;1.25;;;;;;;18.89;38.91;100181.56;16112474;19;129615;-39
2023/03/23 06:16:35;;;;;;;19.70;1.70;;;;;;;19.07;38.95;100195.00;16109124;19;130818;-40
2023/03/23 06:21:57;;;;;;;10.07;1.60;;;;;;;19.25;38.54;100195.69;16111074;19;130322;-39
2023/03/23 06:27:18;;;;;;;11.85;1.50;;;;;;;19.34;38.11;100194.06;16114014;19;130797;-39
2023/03/23 06:32:41;;;;;;;10.18;1.13;;;;;;;19.38;37.93;100205.47;16110312;19;130486;-39
2023/03/23 06:38:04;;;;;;;10.02;1.55;;;;;;;19.40;38.10;100200.47;16113335;19;129378;-39
2023/03/23 06:43:26;;;;;;;7.60;1.70;;;;;;;19.38;38.04;100200.75;16107408;19;130320;-39
2023/03/23 06:48:49;;;;;;;10.50;1.40;;;;;;;19.35;38.09;100201.28;16105841;19;130171;-39
2023/03/23 06:54:11;;;;;;;12.38;1.38;;;;;;;19.31;38.25;100191.00;16106542;19;129324;-39
2023/03/23 06:59:33;;;;;;;9.45;1.35;;;;;;;19.25;38.21;100195.69;16107981;19;132578;-43
2023/03/23 07:04:55;;;;;;;14.80;1.20;;;;;;;19.21;37.98;100250.00;16107148;19;130107;-39
2023/03/23 07:10:17;;;;;;;9.55;1.52;;;;;;;19.17;38.18;100273.81;16110774;19;129564;-39
2023/03/23 07:15:39;;;;;;;12.30;1.60;;;;;;;19.14;38.09;100271.56;16110643;19;131216;-40
2023/03/23 07:21:02;;;;;;;10.77;1.30;;;;;;;19.09;38.36;100269.59;16110113;19;128978;-41
2023/03/23 07:26:24;;;;;;;11.70;1.55;;;;;;;19.05;38.34;100285.91;16110752;19;131440;-39
2023/03/23 07:31:46;;;;;;;14.57;1.90;;;;;;;19.02;38.35;100286.44;16110634;19;130955;-39
2023/03/23 07:37:08;;;;;;;10.15;1.45;;;;;;;18.98;38.64;100290.81;16125907;19;130169;-39
2023/03/23 07:42:30;;;;;;;12.00;1.77;;;;;;;18.95;38.44;100302.47;16126769;19;131585;-39
2023/03/23 07:47:52;;;;;;;7.40;1.75;;;;;;;18.95;38.52;100307.16;16128381;19;130282;-40
2023/03/23 07:53:15;;;;;;;10.52;1.08;;;;;;;19.03;38.49;100304.75;16129705;19;129556;-39
2023/03/23 07:58:37;;;;;;;8.90;1.08;;;;;;;19.14;38.51;100311.19;16126724;19;129594;-39
2023/03/23 08:03:59;;;;;;;8.50;1.33;;;;;;;19.29;38.58;100307.75;16128983;19;129340;-39
2023/03/23 08:09:21;;;;;;;10.13;1.42;;;;;;;19.43;38.13;100308.13;16123393;19;129319;-39
2023/03/23 08:14:43;;;;;;;9.73;1.20;;;;;;;19.55;38.28;100298.75;16125337;19;130774;-39
2023/03/23 08:20:12;;;;;;;6.95;1.35;;;;;;;19.65;38.02;100305.22;16123547;19;130432;-39
2023/03/23 08:25:34;;;;;;;6.70;1.15;;;;;;;19.75;37.59;100320.25;16123002;19;133613;-40
2023/03/23 08:30:56;;;;;;;8.93;1.45;;;;;;;19.77;37.62;100324.41;16123993;19;129632;-40
2023/03/23 08:36:19;;;;;;;7.70;1.23;;;;;;;19.79;37.99;100335.28;16125049;19;129613;-39
2023/03/23 08:41:41;;;;;;;5.13;1.10;;;;;;;19.77;37.71;100345.78;16123492;19;129238;-39
2023/03/23 08:47:04;;;;;;;5.45;0.98;;;;;;;19.72;37.74;100343.81;16121779;19;130031;-39
2023/03/23 08:52:26;;;;;;;8.82;0.82;;;;;;;19.65;37.96;100349.63;16123257;19;130023;-40
2023/03/23 08:57:48;;;;;;;4.57;0.80;;;;;;;19.60;38.11;100332.09;16123490;19;129282;-39
2023/03/23 09:03:10;;;;;;;6.25;0.93;;;;;;;19.53;37.75;100324.81;16126250;19;131595;-40
2023/03/23 09:08:35;;;;;;;6.25;0.90;;;;;;;19.50;38.21;100336.47;16121545;19;130531;-40
2023/03/23 09:13:57;;;;;;;6.77;0.77;;;;;;;19.47;38.16;100331.47;16118778;19;129792;-39
2023/03/23 09:19:20;;;;;;;5.38;0.90;;;;;;;19.45;38.25;100335.59;16117099;19;130779;-41
2023/03/23 09:24:41;;;;;;;2.75;0.90;;;;;;;19.42;37.81;100333.38;16121763;19;129668;-38
2023/03/23 09:30:06;;;;;;;5.72;1.05;;;;;;;19.38;37.83;100342.22;16120353;19;129387;-39
2023/03/23 09:35:31;;;;;;;3.63;1.08;;;;;;;19.37;38.38;100345.25;16121617;19;129456;-40
2023/03/23 09:41:25;;;;;;;4.80;0.80;;;;;;;19.36;37.97;100341.63;16119737;19;130925;-40
2023/03/23 09:47:02;;;;;;;3.45;1.00;;;;;;;19.38;38.24;100350.53;16114748;19;130075;-39
2023/03/23 09:52:43;;;;;;;4.68;0.85;;;;;;;19.41;38.09;100342.78;16118249;19;129362;-39
2023/03/23 09:58:37;;;;;;;4.25;0.85;;;;;;;19.42;38.09;100352.78;16116228;19;129766;-40
2023/03/23 10:04:08;;;;;;;2.92;0.52;;;;;;;19.43;37.84;100360.00;16118871;19;134357;-39
2023/03/23 10:09:30;;;;;;;4.50;0.90;;;;;;;19.43;38.28;100358.06;16116718;19;130300;-39
2023/03/23 10:15:16;;;;;;;3.92;1.08;;;;;;;19.45;38.29;100377.19;16119187;19;129888;-39
2023/03/23 10:20:40;;;;;;;4.35;1.00;;;;;;;19.41;38.26;100371.34;16117752;19;129530;-40
2023/03/23 10:26:17;;;;;;;1.67;0.68;;;;;;;19.37;38.36;100364.69;16109763;19;129815;-40
2023/03/23 10:31:52;;;;;;;2.63;0.98;;;;;;;19.32;38.33;100354.34;16117515;19;133608;-41
2023/03/23 10:37:28;;;;;;;5.53;0.80;;;;;;;19.29;38.49;100357.69;16116867;19;133303;-39
2023/03/23 10:42:51;;;;;;;6.43;1.13;;;;;;;19.27;38.46;100359.88;16115520;19;130821;-40
2023/03/23 10:48:23;;;;;;;4.47;0.90;;;;;;;19.28;38.64;100361.53;16115034;19;130747;-40
2023/03/23 10:53:50;;;;;;;2.72;0.88;;;;;;;19.31;38.57;100368.50;16110122;19;129411;-41
2023/03/23 10:59:26;;;;;;;4.05;0.77;;;;;;;19.28;38.65;100372.63;16112989;19;129909;-40
2023/03/23 11:05:01;;;;;;;6.13;1.10;;;;;;;19.28;38.40;100372.63;16110506;19;131105;-42
2023/03/23 11:10:39;;;;;;;7.68;1.17;;;;;;;19.27;38.87;100375.66;16122853;19;129794;-41
2023/03/23 11:16:01;;;;;;;2.38;0.80;;;;;;;19.23;38.92;100372.59;16127795;19;129481;-40
2023/03/23 11:21:24;;;;;;;2.63;0.77;;;;;;;19.24;38.94;100373.44;16129641;19;129556;-39
2023/03/23 11:26:48;;;;;;;2.45;0.80;;;;;;;19.27;38.93;100368.19;16129332;19;131187;-39
2023/03/23 11:32:24;;;;;;;3.97;0.75;;;;;;;19.30;38.78;100353.81;16131384;19;132974;-40
2023/03/23 11:37:58;;;;;;;2.85;0.82;;;;;;;19.33;38.60;100366.28;16128116;19;129687;-40
2023/03/23 11:43:24;;;;;;;3.95;0.77;;;;;;;19.34;38.41;100359.66;16128671;19;129545;-39
2023/03/23 11:49:08;;;;;;;7.47;0.90;;;;;;;19.36;38.72;100341.63;16125804;19;130058;-40
2023/03/23 11:55:04;;;;;;;5.78;0.98;;;;;;;19.36;38.65;100313.91;16124031;19;130341;-38
2023/03/23 12:00:28;;;;;;;4.68;0.82;;;;;;;19.34;38.76;100316.09;16124370;19;130468;-39
2023/03/23 12:05:53;;;;;;;3.53;0.80;;;;;;;19.33;38.45;100333.84;16122756;19;131317;-39
2023/03/23 12:11:32;;;;;;;3.38;0.95;;;;;;;19.32;38.75;100323.84;16123641;19;129514;-39
2023/03/23 12:17:17;;;;;;;3.28;1.05;;;;;;;19.34;38.68;100318.88;16125329;19;129928;-39
2023/03/23 12:23:09;;;;;;;6.57;1.08;;;;;;;19.33;38.33;100324.69;16124607;19;130366;-39
2023/03/23 12:28:33;;;;;;;3.42;0.85;;;;;;;19.32;38.42;100314.69;16123669;19;129544;-38
2023/03/23 12:34:32;;;;;;;4.32;0.90;;;;;;;19.34;38.78;100298.63;16123026;19;129064;-39
2023/03/23 12:40:12;;;;;;;6.35;1.05;;;;;;;19.33;38.76;100291.41;16123568;19;129563;-40
2023/03/23 12:45:51;;;;;;;4.70;0.90;;;;;;;19.32;38.77;100287.78;16120169;19;131249;-41
2023/03/23 12:51:23;;;;;;;5.70;1.05;;;;;;;19.31;38.34;100283.38;16123474;19;129414;-39
2023/03/23 12:56:58;;;;;;;5.93;1.20;;;;;;;19.32;38.43;100307.19;16119070;19;130484;-39
2023/03/23 13:02:32;;;;;;;5.05;1.30;;;;;;;19.30;38.77;100312.19;16121002;19;130454;-39
2023/03/23 13:08:03;;;;;;;7.00;1.58;;;;;;;19.29;38.85;100313.31;16122606;19;130418;-39
2023/03/23 13:13:41;;;;;;;3.40;1.00;;;;;;;19.28;38.88;100305.22;16120031;19;130642;-39
2023/03/23 13:19:30;;;;;;;5.68;1.50;;;;;;;19.27;38.91;100326.59;16121122;19;129224;-39
2023/03/23 13:24:59;;;;;;;3.25;1.00;;;;;;;19.26;38.50;100330.47;16121353;19;129507;-39
2023/03/23 13:30:24;;;;;;;2.45;0.85;;;;;;;19.24;38.65;100321.56;16117315;19;129142;-41
2023/03/23 13:35:49;;;;;;;3.33;1.17;;;;;;;19.24;38.76;100298.56;16117733;19;129568;-44
2023/03/23 13:41:13;;;;;;;5.43;1.20;;;;;;;19.22;38.87;100307.97;16119790;19;129523;-42
2023/03/23 13:46:35;;;;;;;3.95;1.10;;;;;;;19.20;39.04;100295.47;16119109;19;130442;-43
2023/03/23 13:52:02;;;;;;;5.57;1.45;;;;;;;19.18;38.77;100298.47;16114108;19;130397;-40
2023/03/23 13:57:48;;;;;;;4.70;1.13;;;;;;;19.19;39.06;100277.16;16109964;19;129856;-42
2023/03/23 14:03:10;;;;;;;6.97;1.23;;;;;;;19.18;39.38;100300.44;16115661;19;129452;-41
2023/03/23 14:08:32;;;;;;;5.05;1.10;;;;;;;19.17;39.50;100307.06;16108659;19;129981;-42
2023/03/23 14:14:15;;;;;;;5.97;1.10;;;;;;;19.17;39.40;100298.75;16112541;19;131221;-40
2023/03/23 14:19:39;;;;;;;4.35;1.20;;;;;;;19.12;39.46;100276.53;16115697;19;131181;-41
2023/03/23 14:25:16;;;;;;;9.77;2.17;;;;;;;19.12;39.80;100257.13;16115150;19;129521;-39
2023/03/23 14:30:38;;;;;;;8.07;1.80;;;;;;;19.07;39.52;100256.00;16119946;19;130017;-39
2023/03/23 14:36:00;;;;;;;7.65;1.30;;;;;;;19.05;39.53;100258.19;16112989;19;132011;-39
2023/03/23 14:41:22;;;;;;;6.40;1.50;;;;;;;19.04;39.56;100256.53;16113007;19;129384;-39
2023/03/23 14:46:45;;;;;;;8.73;2.03;;;;;;;19.01;39.14;100256.22;16115344;19;130456;-40
2023/03/23 14:52:13;;;;;;;7.35;1.65;;;;;;;19.00;39.02;100274.78;16112434;19;129827;-39
2023/03/23 14:57:35;;;;;;;10.52;1.92;;;;;;;18.99;38.86;100275.88;16113927;19;129915;-39
2023/03/23 15:02:59;;;;;;;7.20;1.55;;;;;;;18.97;38.74;100261.44;16114305;19;130559;-39
2023/03/23 15:08:30;;;;;;;5.28;1.50;;;;;;;18.98;39.14;100245.66;16110244;19;129247;-39
2023/03/23 15:13:57;;;;;;;6.38;1.42;;;;;;;18.95;39.34;100241.47;16112141;19;130220;-39
2023/03/23 15:19:23;;;;;;;6.18;1.67;;;;;;;18.95;39.16;100232.31;16111621;19;130507;-39
2023/03/23 15:24:45;;;;;;;12.77;2.05;;;;;;;18.92;39.31;100219.84;16111447;19;129468;-39
2023/03/23 15:30:28;;;;;;;11.73;1.65;;;;;;;18.91;39.32;100223.72;16112986;19;130474;-39
2023/03/23 15:35:50;;;;;;;7.57;1.58;;;;;;;18.87;39.43;100248.34;16111118;19;129598;-39
2023/03/23 15:41:26;;;;;;;6.65;1.60;;;;;;;18.91;39.45;100251.41;16112796;19;129451;-40
2023/03/23 15:46:51;;;;;;;7.93;1.38;;;;;;;18.91;39.36;100243.09;16113762;19;131217;-39
2023/03/23 15:52:28;;;;;;;7.15;1.55;;;;;;;18.98;39.39;100235.38;16112795;19;129354;-38
2023/03/23 15:57:51;;;;;;;6.53;1.58;;;;;;;19.02;39.32;100227.38;16126327;19;129428;-39
2023/03/23 16:03:50;;;;;;;10.48;1.88;;;;;;;19.03;39.14;100224.34;16125627;19;129317;-40
2023/03/23 16:09:15;;;;;;;5.93;1.20;;;;;;;19.02;39.61;100228.22;16123646;19;130229;-42
2023/03/23 16:14:36;;;;;;;7.20;2.00;;;;;;;19.01;39.43;100231.28;16126282;19;129774;-40
2023/03/23 16:19:58;;;;;;;6.65;1.58;;;;;;;18.98;39.94;100229.84;16125815;19;130225;-40
2023/03/23 16:25:20;;;;;;;6.65;1.52;;;;;;;18.95;40.12;100224.84;16123658;19;129129;-39
2023/03/23 16:30:43;;;;;;;4.65;1.33;;;;;;;18.94;40.40;100230.66;16125934;19;129572;-40
2023/03/23 16:36:06;;;;;;;7.03;1.75;;;;;;;18.90;40.62;100230.34;16123569;19;129476;-39
2023/03/23 16:41:28;;;;;;;6.82;1.85;;;;;;;18.88;40.57;100213.16;16118597;19;130250;-42
2023/03/23 16:46:50;;;;;;;5.28;1.50;;;;;;;18.87;41.00;100211.47;16120667;19;130176;-39
2023/03/23 16:52:11;;;;;;;6.72;2.15;;;;;;;18.86;41.47;100205.09;16119446;19;130321;-40
2023/03/23 16:57:37;;;;;;;6.75;2.15;;;;;;;18.85;41.25;100211.75;16120223;19;131689;-40
2023/03/23 17:03:01;;;;;;;7.68;1.83;;;;;;;18.83;41.38;100215.91;16122185;19;129715;-39
2023/03/23 17:08:23;;;;;;;6.35;1.90;;;;;;;18.82;41.89;100208.69;16120847;19;129558;-40
2023/03/23 17:13:45;;;;;;;6.70;1.80;;;;;;;18.80;42.59;100200.59;16114833;19;130141;-40
2023/03/23 17:19:07;;;;;;;5.78;2.17;;;;;;;18.88;43.01;100188.19;16116072;19;130762;-39
2023/03/23 17:24:29;;;;;;;5.35;1.75;;;;;;;19.10;42.88;100190.84;16119580;19;129735;-39
2023/03/23 17:29:51;;;;;;;6.75;1.67;;;;;;;19.45;43.10;100177.47;16116510;19;131158;-41
2023/03/23 17:35:13;;;;;;;5.07;1.48;;;;;;;19.76;42.55;100174.81;16115215;19;130021;-39
2023/03/23 17:40:35;;;;;;;7.78;1.45;;;;;;;19.96;42.50;100169.31;16115811;19;129733;-39
2023/03/23 17:45:57;;;;;;;6.20;2.15;;;;;;;20.04;42.21;100172.72;16118581;19;129858;-40
2023/03/23 17:51:19;;;;;;;7.78;2.03;;;;;;;20.04;42.39;100167.16;16116981;19;131614;-40
2023/03/23 17:56:41;;;;;;;7.15;1.85;;;;;;;20.01;42.65;100151.88;16114352;19;130525;-40
2023/03/23 18:02:03;;;;;;;7.30;1.95;;;;;;;19.95;42.84;100158.50;16111767;19;129519;-42
2023/03/23 18:07:26;;;;;;;2.97;1.50;;;;;;;19.87;42.99;100148.78;16116084;19;130958;-40
2023/03/23 18:12:51;;;;;;;6.32;1.60;;;;;;;19.79;42.61;100138.22;16113496;19;128865;-40
2023/03/23 18:18:13;;;;;;;8.70;2.40;;;;;;;19.70;42.67;100132.34;16109892;19;130549;-40
2023/03/23 18:23:36;;;;;;;8.15;1.50;;;;;;;19.63;43.22;100124.28;16114396;19;130131;-43
2023/03/23 18:29:10;;;;;;;8.00;1.38;;;;;;;19.56;43.16;100123.72;16115002;19;129647;-42
2023/03/23 18:34:31;;;;;;;19.60;2.17;;;;;;;19.48;43.41;100115.91;16109163;19;129512;-40
2023/03/23 18:39:53;;;;;;;29.02;2.83;;;;;;;19.48;43.59;100115.91;16029964;19;131821;-39
2023/03/23 18:45:15;;;;;;;31.80;3.33;;;;;;;19.50;43.99;100113.69;16113507;19;131293;-40
2023/03/23 18:50:37;;;;;;;25.45;2.63;;;;;;;19.53;44.08;100111.19;16111678;19;130231;-41
2023/03/23 18:56:08;;;;;;;20.15;2.40;;;;;;;19.58;43.73;100110.38;16111133;19;133792;-40
2023/03/23 19:01:30;;;;;;;20.35;3.35;;;;;;;19.57;43.84;100103.16;16107527;19;129992;-40
2023/03/23 19:06:52;;;;;;;18.05;3.55;;;;;;;19.60;44.16;100107.34;16111368;19;129589;-41
2023/03/23 19:12:14;;;;;;;13.23;2.10;;;;;;;19.63;43.82;100107.63;16108327;19;130186;-41
2023/03/23 19:17:36;;;;;;;25.25;2.72;;;;;;;19.79;43.83;100099.34;16109500;19;130153;-39
2023/03/23 19:22:58;;;;;;;16.65;2.20;;;;;;;19.99;43.51;100101.34;16110271;19;130776;-41
2023/03/23 19:28:21;;;;;;;15.38;2.42;;;;;;;20.19;43.34;100086.63;16104459;19;130538;-40
2023/03/23 19:34:03;;;;;;;18.27;2.05;;;;;;;20.41;42.72;100083.59;16126522;19;129440;-40
2023/03/23 19:39:25;;;;;;;11.77;2.08;;;;;;;20.59;43.01;100076.63;16123416;19;131901;-40
2023/03/23 19:44:47;;;;;;;15.07;2.33;;;;;;;20.75;42.54;100065.47;16121388;19;131542;-41
2023/03/23 19:50:09;;;;;;;9.75;2.00;;;;;;;20.88;42.44;100056.56;16119162;19;130056;-41
2023/03/23 19:55:31;;;;;;;23.25;2.40;;;;;;;21.00;42.24;100055.41;16120884;19;130816;-42
2023/03/23 20:00:54;;;;;;;20.42;1.70;;;;;;;21.11;41.92;100048.69;16116635;19;129737;-40
2023/03/23 20:06:17;;;;;;;14.85;1.80;;;;;;;21.21;41.34;100054.22;16113556;19;129840;-42
2023/03/23 20:11:39;;;;;;;17.95;2.13;;;;;;;21.22;41.16;100046.72;16118514;19;130611;-41
2023/03/23 20:17:01;;;;;;;10.60;1.70;;;;;;;21.21;41.11;100051.44;16123046;19;130106;-40
2023/03/23 20:22:22;;;;;;;22.52;2.30;;;;;;;21.23;41.45;100051.16;16118944;19;130045;-41
2023/03/23 20:27:45;;;;;;;13.23;2.10;;;;;;;21.24;41.33;100051.97;16121059;19;131810;-43
2023/03/23 20:33:08;;;;;;;9.18;1.98;;;;;;;21.24;41.29;100043.63;16121374;19;129776;-40
2023/03/23 20:38:34;;;;;;;13.20;1.90;;;;;;;21.22;41.51;100030.84;16122095;19;129463;-39
2023/03/23 20:43:56;;;;;;;10.27;1.65;;;;;;;21.21;41.63;100028.34;16123461;19;129771;-41
2023/03/23 20:49:19;;;;;;;11.93;1.70;;;;;;;21.20;41.66;100027.50;16122228;19;129515;-43
2023/03/23 20:54:43;;;;;;;10.32;2.15;;;;;;;21.20;41.13;100030.28;16117603;19;129740;-41
2023/03/23 21:00:06;;;;;;;8.77;1.85;;;;;;;21.20;41.31;100029.47;16114879;19;132095;-40
2023/03/23 21:05:28;;;;;;;14.75;1.80;;;;;;;21.19;41.22;100033.38;16117018;19;130004;-41
2023/03/23 21:10:50;;;;;;;17.73;1.88;;;;;;;21.17;41.42;100022.50;16116026;19;130612;-41
2023/03/23 21:16:12;;;;;;;17.63;2.55;;;;;;;21.18;41.27;100032.53;16118654;19;129867;-40
2023/03/23 21:21:34;;;;;;;11.70;1.40;;;;;;;21.18;41.22;100013.06;16118854;19;130896;-39
2023/03/23 21:26:59;;;;;;;7.20;1.60;;;;;;;21.16;41.36;100006.13;16118295;19;129913;-40
2023/03/23 21:32:22;;;;;;;13.20;1.92;;;;;;;21.12;41.08;100003.09;16116090;19;129682;-40
2023/03/23 21:37:43;;;;;;;12.88;1.77;;;;;;;21.06;41.34;99990.31;16114879;19;129630;-41
2023/03/23 21:43:11;;;;;;;14.90;1.60;;;;;;;20.97;40.85;99983.69;16116185;19;130573;-40
2023/03/23 21:48:37;;;;;;;20.83;2.35;;;;;;;20.88;41.00;99973.16;16117362;19;129487;-41
2023/03/23 21:53:59;;;;;;;13.18;1.58;;;;;;;20.78;41.16;99964.88;16111861;19;130408;-40
2023/03/23 21:59:21;;;;;;;10.68;2.00;;;;;;;20.70;41.14;99957.06;16107541;19;131731;-41
2023/03/23 22:04:43;;;;;;;12.75;1.80;;;;;;;20.62;40.72;99944.59;16112968;19;131468;-46
2023/03/23 22:10:07;;;;;;;10.05;1.52;;;;;;;20.52;41.21;99937.16;16113876;19;129631;-43
2023/03/23 22:15:29;;;;;;;6.53;1.73;;;;;;;20.44;40.99;99930.22;16110279;19;129761;-46
2023/03/23 22:20:52;;;;;;;10.88;1.77;;;;;;;20.36;41.10;99922.50;16116290;19;130598;-43
2023/03/23 22:26:15;;;;;;;9.82;1.95;;;;;;;20.32;40.97;99909.41;16114058;19;129536;-42
2023/03/23 22:31:38;;;;;;;12.38;2.17;;;;;;;20.23;41.15;99904.47;16115416;19;129814;-43
2023/03/23 22:37:00;;;;;;;5.22;1.40;;;;;;;20.16;41.37;99914.19;16114626;19;129971;-43
2023/03/23 22:42:22;;;;;;;9.25;1.73;;;;;;;20.10;41.01;99914.22;16114836;19;130796;-42
2023/03/23 22:47:44;;;;;;;11.25;1.70;;;;;;;20.05;41.05;99896.75;16113116;19;130211;-41
2023/03/23 22:53:06;;;;;;;11.68;1.45;;;;;;;19.98;41.44;99885.91;16113366;19;129393;-41
2023/03/23 22:58:28;;;;;;;6.47;1.52;;;;;;;19.93;41.44;99880.34;16111736;19;129646;-42
2023/03/23 23:03:51;;;;;;;7.13;1.20;;;;;;;19.90;41.06;99869.81;16123885;19;129971;-40
2023/03/23 23:09:13;;;;;;;4.75;1.17;;;;;;;19.85;41.25;99848.44;16144472;19;131640;-40
2023/03/23 23:14:36;;;;;;;7.55;1.48;;;;;;;19.79;41.27;99850.41;16143516;19;131838;-40
2023/03/23 23:19:59;;;;;;;7.80;1.50;;;;;;;19.77;41.26;99849.03;16141433;19;129893;-42
2023/03/23 23:25:21;;;;;;;6.20;1.80;;;;;;;19.75;41.02;99831.81;16140721;19;130590;-41
2023/03/23 23:30:44;;;;;;;2.17;1.02;;;;;;;19.72;41.05;99824.03;16141010;19;131786;-41
2023/03/23 23:36:07;;;;;;;5.57;1.35;;;;;;;19.67;41.01;99806.31;16139851;19;130065;-42
2023/03/23 23:41:30;;;;;;;4.72;1.23;;;;;;;19.65;41.29;99805.75;16139699;19;130568;-41
2023/03/23 23:46:52;;;;;;;7.22;1.30;;;;;;;19.62;40.97;99795.22;16140408;19;128992;-41
2023/03/23 23:52:14;;;;;;;4.50;1.10;;;;;;;19.59;41.04;99776.34;16138862;19;130721;-40
2023/03/23 23:57:36;;;;;;;6.75;0.98;;;;;;;19.56;41.05;99789.97;16141895;19;129433;-41
